KASE

Aspen-Pitkin Co / Sardy Field Airport

Aspen, Colorado, USA
METAR KASE 181353Z 00000KT 6SM -RA SCT025 SCT031 OVC048 12/09 A3048 RMK AO2 RAE10B30 TSE09B10E13 SLP202 P0004 T01170089
Observed Flight Rules
Aug-18 @ 13:53 UTC (60 minutes ago) Visual Flight Rules
Visibility Clouds Conditions
6 miles
  • Scattered at 2,500' AGL
  • Scattered at 3,100' AGL
  • Overcast at 4,800' AGL
  • Light Rain
Temperatures Readings Precipitation
Current 12°C / 54°F
Dewpoint 9°C / 48°F
Humidity 82%
Altimeter 30.48" Hg
Pressure 1020.2 hPa
Elevation 2354
Current Rain 0.04
METAR KASE 181353Z 00000KT 6SM -RA SCT025 SCT031 OVC048 12/09 A3048 RMK AO2 RAE10B30 TSE09B10E13 SLP202 P0004 T01170089
Observed Flight Rules
Aug-18 @ 13:53 UTC
(60 minutes ago)
VFR
Clouds
  • Scattered at 2,500' AGL
  • Scattered at 3,100' AGL
  • Overcast at 4,800' AGL
Conditions
  • Light Rain
Temperature Dewpoint
12°C / 54°F 9°C / 48°F
Humidity Altimeter Pressure
82% 30.48" Hg 1020.2 hPa
Current Rain
0.04